sensor_id;sensor_type;location;lat;lon;timestamp;temperature;humidity
20141;DHT22;10231;47.702;9.826;2023-07-02T00:01:19;16.80;99.90
20141;DHT22;10231;47.702;9.826;2023-07-02T00:03:44;16.80;99.90
20141;DHT22;10231;47.702;9.826;2023-07-02T00:06:10;16.90;99.90
20141;DHT22;10231;47.702;9.826;2023-07-02T00:08:35;16.80;99.90
20141;DHT22;10231;47.702;9.826;2023-07-02T00:11:01;16.90;99.90
20141;DHT22;10231;47.702;9.826;2023-07-02T00:13:26;16.90;99.90
20141;DHT22;10231;47.702;9.826;2023-07-02T00:15:52;16.90;99.90
20141;DHT22;10231;47.702;9.826;2023-07-02T00:18:17;16.90;99.90
20141;DHT22;10231;47.702;9.826;2023-07-02T00:20:43;17.00;99.90
20141;DHT22;10231;47.702;9.826;2023-07-02T00:23:09;16.90;99.90
20141;DHT22;10231;47.702;9.826;2023-07-02T00:25:35;16.90;99.90
20141;DHT22;10231;47.702;9.826;2023-07-02T00:28:01;16.90;99.90
20141;DHT22;10231;47.702;9.826;2023-07-02T00:30:27;17.00;99.90
20141;DHT22;10231;47.702;9.826;2023-07-02T00:32:52;17.00;99.90
20141;DHT22;10231;47.702;9.826;2023-07-02T00:35:18;17.00;99.90
20141;DHT22;10231;47.702;9.826;2023-07-02T00:37:43;16.90;99.90
20141;DHT22;10231;47.702;9.826;2023-07-02T00:40:09;16.90;99.90
20141;DHT22;10231;47.702;9.826;2023-07-02T00:42:35;16.90;99.90
20141;DHT22;10231;47.702;9.826;2023-07-02T00:45:01;16.80;99.90
20141;DHT22;10231;47.702;9.826;2023-07-02T00:47:30;16.80;99.90
20141;DHT22;10231;47.702;9.826;2023-07-02T00:49:57;16.70;99.90
20141;DHT22;10231;47.702;9.826;2023-07-02T00:52:23;16.70;99.90
20141;DHT22;10231;47.702;9.826;2023-07-02T00:54:51;16.70;99.90
20141;DHT22;10231;47.702;9.826;2023-07-02T00:57:17;16.70;99.90
20141;DHT22;10231;47.702;9.826;2023-07-02T00:59:42;16.70;99.90
20141;DHT22;10231;47.702;9.826;2023-07-02T01:02:08;16.70;99.90
20141;DHT22;10231;47.702;9.826;2023-07-02T01:04:33;16.70;99.90
20141;DHT22;10231;47.702;9.826;2023-07-02T01:06:59;16.60;99.90
20141;DHT22;10231;47.702;9.826;2023-07-02T01:09:25;16.70;99.90
20141;DHT22;10231;47.702;9.826;2023-07-02T01:11:57;16.70;99.90
20141;DHT22;10231;47.702;9.826;2023-07-02T01:14:33;16.60;99.90
20141;DHT22;10231;47.702;9.826;2023-07-02T01:17:01;16.50;99.90
20141;DHT22;10231;47.702;9.826;2023-07-02T01:19:49;16.30;99.90
20141;DHT22;10231;47.702;9.826;2023-07-02T01:22:19;16.30;99.90
20141;DHT22;10231;47.702;9.826;2023-07-02T01:24:46;16.20;99.90
20141;DHT22;10231;47.702;9.826;2023-07-02T01:27:12;16.00;99.90
20141;DHT22;10231;47.702;9.826;2023-07-02T01:29:38;15.90;99.90
20141;DHT22;10231;47.702;9.826;2023-07-02T01:32:04;15.80;99.90
20141;DHT22;10231;47.702;9.826;2023-07-02T01:34:30;15.80;99.90
20141;DHT22;10231;47.702;9.826;2023-07-02T01:36:56;15.70;99.90
20141;DHT22;10231;47.702;9.826;2023-07-02T01:39:22;15.70;99.90
20141;DHT22;10231;47.702;9.826;2023-07-02T01:41:55;15.70;99.90
20141;DHT22;10231;47.702;9.826;2023-07-02T01:44:21;15.80;99.90
20141;DHT22;10231;47.702;9.826;2023-07-02T01:46:48;15.70;99.90
20141;DHT22;10231;47.702;9.826;2023-07-02T01:49:18;15.70;99.90
20141;DHT22;10231;47.702;9.826;2023-07-02T01:51:48;15.80;99.90
20141;DHT22;10231;47.702;9.826;2023-07-02T01:54:14;15.80;99.90
20141;DHT22;10231;47.702;9.826;2023-07-02T01:56:39;15.80;99.90
20141;DHT22;10231;47.702;9.826;2023-07-02T01:59:05;15.90;99.90
20141;DHT22;10231;47.702;9.826;2023-07-02T02:01:30;15.90;99.90
20141;DHT22;10231;47.702;9.826;2023-07-02T02:03:58;16.00;99.90
20141;DHT22;10231;47.702;9.826;2023-07-02T02:09:45;16.00;99.90
20141;DHT22;10231;47.702;9.826;2023-07-02T02:12:11;16.00;99.90
20141;DHT22;10231;47.702;9.826;2023-07-02T02:14:36;16.00;99.90
20141;DHT22;10231;47.702;9.826;2023-07-02T02:17:02;16.00;99.90
20141;DHT22;10231;47.702;9.826;2023-07-02T02:19:27;16.00;99.90
20141;DHT22;10231;47.702;9.826;2023-07-02T02:21:53;16.00;99.90
20141;DHT22;10231;47.702;9.826;2023-07-02T02:24:19;16.10;99.90
20141;DHT22;10231;47.702;9.826;2023-07-02T02:26:44;16.10;99.90
20141;DHT22;10231;47.702;9.826;2023-07-02T02:29:10;16.10;99.90
20141;DHT22;10231;47.702;9.826;2023-07-02T02:31:35;16.20;99.90
20141;DHT22;10231;47.702;9.826;2023-07-02T02:37:37;16.20;99.90
20141;DHT22;10231;47.702;9.826;2023-07-02T02:40:04;16.20;99.90
20141;DHT22;10231;47.702;9.826;2023-07-02T02:42:31;16.20;99.90
20141;DHT22;10231;47.702;9.826;2023-07-02T02:44:56;16.20;99.90
20141;DHT22;10231;47.702;9.826;2023-07-02T02:47:22;16.20;99.90
20141;DHT22;10231;47.702;9.826;2023-07-02T02:49:47;16.20;99.90
20141;DHT22;10231;47.702;9.826;2023-07-02T02:52:13;16.20;99.90
20141;DHT22;10231;47.702;9.826;2023-07-02T02:54:40;16.20;99.90
20141;DHT22;10231;47.702;9.826;2023-07-02T02:57:05;16.20;99.90
20141;DHT22;10231;47.702;9.826;2023-07-02T02:59:31;16.20;99.90
20141;DHT22;10231;47.702;9.826;2023-07-02T03:01:56;16.20;99.90
20141;DHT22;10231;47.702;9.826;2023-07-02T03:04:22;16.20;99.90
20141;DHT22;10231;47.702;9.826;2023-07-02T03:06:50;16.20;99.90
20141;DHT22;10231;47.702;9.826;2023-07-02T03:09:17;16.20;99.90
20141;DHT22;10231;47.702;9.826;2023-07-02T03:11:42;16.20;99.90
20141;DHT22;10231;47.702;9.826;2023-07-02T03:14:08;16.20;99.90
20141;DHT22;10231;47.702;9.826;2023-07-02T03:16:33;16.20;99.90
20141;DHT22;10231;47.702;9.826;2023-07-02T03:18:59;16.20;99.90
20141;DHT22;10231;47.702;9.826;2023-07-02T03:21:24;16.20;99.90
20141;DHT22;10231;47.702;9.826;2023-07-02T03:23:50;16.20;99.90
20141;DHT22;10231;47.702;9.826;2023-07-02T03:26:15;16.20;99.90
20141;DHT22;10231;47.702;9.826;2023-07-02T03:28:41;16.30;99.90
20141;DHT22;10231;47.702;9.826;2023-07-02T03:31:07;16.30;99.90
20141;DHT22;10231;47.702;9.826;2023-07-02T03:33:32;16.30;99.90
20141;DHT22;10231;47.702;9.826;2023-07-02T03:35:58;16.30;99.90
20141;DHT22;10231;47.702;9.826;2023-07-02T03:38:23;16.30;99.90
20141;DHT22;10231;47.702;9.826;2023-07-02T03:40:49;16.30;99.90
20141;DHT22;10231;47.702;9.826;2023-07-02T03:43:14;16.40;99.90
20141;DHT22;10231;47.702;9.826;2023-07-02T03:45:40;16.40;99.90
20141;DHT22;10231;47.702;9.826;2023-07-02T03:48:05;16.40;99.90
20141;DHT22;10231;47.702;9.826;2023-07-02T03:50:31;16.40;99.90
20141;DHT22;10231;47.702;9.826;2023-07-02T03:52:56;16.40;99.90
20141;DHT22;10231;47.702;9.826;2023-07-02T03:55:22;16.30;99.90
20141;DHT22;10231;47.702;9.826;2023-07-02T03:57:48;16.40;99.90
20141;DHT22;10231;47.702;9.826;2023-07-02T04:00:13;16.40;99.90
20141;DHT22;10231;47.702;9.826;2023-07-02T04:02:39;16.40;99.90
20141;DHT22;10231;47.702;9.826;2023-07-02T04:05:05;16.40;99.90
20141;DHT22;10231;47.702;9.826;2023-07-02T04:07:31;16.40;99.90
20141;DHT22;10231;47.702;9.826;2023-07-02T04:09:56;16.40;99.90
20141;DHT22;10231;47.702;9.826;2023-07-02T04:12:22;16.40;99.90
20141;DHT22;10231;47.702;9.826;2023-07-02T04:14:47;16.40;99.90
20141;DHT22;10231;47.702;9.826;2023-07-02T04:17:13;16.40;99.90
20141;DHT22;10231;47.702;9.826;2023-07-02T04:19:38;16.40;99.90
20141;DHT22;10231;47.702;9.826;2023-07-02T04:22:04;16.40;99.90
20141;DHT22;10231;47.702;9.826;2023-07-02T04:24:30;16.40;99.90
20141;DHT22;10231;47.702;9.826;2023-07-02T04:26:55;16.40;99.90
20141;DHT22;10231;47.702;9.826;2023-07-02T04:29:21;16.30;99.90
20141;DHT22;10231;47.702;9.826;2023-07-02T04:31:46;16.30;99.90
20141;DHT22;10231;47.702;9.826;2023-07-02T04:34:12;16.40;99.90
20141;DHT22;10231;47.702;9.826;2023-07-02T04:36:37;16.40;99.90
20141;DHT22;10231;47.702;9.826;2023-07-02T04:39:03;16.40;99.90
20141;DHT22;10231;47.702;9.826;2023-07-02T04:41:28;16.40;99.90
20141;DHT22;10231;47.702;9.826;2023-07-02T04:43:55;16.30;99.90
20141;DHT22;10231;47.702;9.826;2023-07-02T04:46:21;16.30;99.90
20141;DHT22;10231;47.702;9.826;2023-07-02T04:48:46;16.20;99.90
20141;DHT22;10231;47.702;9.826;2023-07-02T04:51:13;16.30;99.90
20141;DHT22;10231;47.702;9.826;2023-07-02T04:53:38;16.30;99.90
20141;DHT22;10231;47.702;9.826;2023-07-02T04:56:04;16.30;99.90
20141;DHT22;10231;47.702;9.826;2023-07-02T04:58:29;16.20;99.90
20141;DHT22;10231;47.702;9.826;2023-07-02T05:00:55;16.20;99.90
20141;DHT22;10231;47.702;9.826;2023-07-02T05:03:20;16.20;99.90
20141;DHT22;10231;47.702;9.826;2023-07-02T05:05:46;16.20;99.90
20141;DHT22;10231;47.702;9.826;2023-07-02T05:08:11;16.20;99.90
20141;DHT22;10231;47.702;9.826;2023-07-02T05:10:37;16.10;99.90
20141;DHT22;10231;47.702;9.826;2023-07-02T05:13:02;16.00;99.90
20141;DHT22;10231;47.702;9.826;2023-07-02T05:15:28;16.00;99.90
20141;DHT22;10231;47.702;9.826;2023-07-02T05:17:53;16.00;99.90
20141;DHT22;10231;47.702;9.826;2023-07-02T05:20:19;16.00;99.90
20141;DHT22;10231;47.702;9.826;2023-07-02T05:22:45;16.10;99.90
20141;DHT22;10231;47.702;9.826;2023-07-02T05:25:10;16.10;99.90
20141;DHT22;10231;47.702;9.826;2023-07-02T05:27:36;16.10;99.90
20141;DHT22;10231;47.702;9.826;2023-07-02T05:30:01;16.10;99.90
20141;DHT22;10231;47.702;9.826;2023-07-02T05:32:27;16.20;99.90
20141;DHT22;10231;47.702;9.826;2023-07-02T05:34:52;16.10;99.90
20141;DHT22;10231;47.702;9.826;2023-07-02T05:37:18;16.10;99.90
20141;DHT22;10231;47.702;9.826;2023-07-02T05:39:43;16.10;99.90
20141;DHT22;10231;47.702;9.826;2023-07-02T05:42:09;16.10;99.90
20141;DHT22;10231;47.702;9.826;2023-07-02T05:44:34;16.10;99.90
20141;DHT22;10231;47.702;9.826;2023-07-02T05:47:00;16.20;99.90
20141;DHT22;10231;47.702;9.826;2023-07-02T05:49:26;16.10;99.90
20141;DHT22;10231;47.702;9.826;2023-07-02T05:51:51;16.10;99.90
20141;DHT22;10231;47.702;9.826;2023-07-02T05:54:17;16.20;99.90
20141;DHT22;10231;47.702;9.826;2023-07-02T05:56:43;16.10;99.90
20141;DHT22;10231;47.702;9.826;2023-07-02T05:59:08;16.10;99.90
20141;DHT22;10231;47.702;9.826;2023-07-02T06:01:34;16.20;99.90
20141;DHT22;10231;47.702;9.826;2023-07-02T06:03:59;16.10;99.90
20141;DHT22;10231;47.702;9.826;2023-07-02T06:06:25;16.20;99.90
20141;DHT22;10231;47.702;9.826;2023-07-02T06:08:51;16.10;99.90
20141;DHT22;10231;47.702;9.826;2023-07-02T06:11:17;16.20;99.90
20141;DHT22;10231;47.702;9.826;2023-07-02T06:13:42;16.10;99.90
20141;DHT22;10231;47.702;9.826;2023-07-02T06:16:08;16.00;99.90
20141;DHT22;10231;47.702;9.826;2023-07-02T06:18:33;16.00;99.90
20141;DHT22;10231;47.702;9.826;2023-07-02T06:20:59;16.00;99.90
20141;DHT22;10231;47.702;9.826;2023-07-02T06:23:25;16.10;99.90
20141;DHT22;10231;47.702;9.826;2023-07-02T06:25:50;16.10;99.90
20141;DHT22;10231;47.702;9.826;2023-07-02T06:28:27;16.10;99.90
20141;DHT22;10231;47.702;9.826;2023-07-02T06:30:53;16.20;99.90
20141;DHT22;10231;47.702;9.826;2023-07-02T06:33:18;16.20;99.90
20141;DHT22;10231;47.702;9.826;2023-07-02T06:35:44;16.20;99.90
20141;DHT22;10231;47.702;9.826;2023-07-02T06:38:09;16.20;99.90
20141;DHT22;10231;47.702;9.826;2023-07-02T06:40:35;16.20;99.90
20141;DHT22;10231;47.702;9.826;2023-07-02T06:43:00;16.20;99.90
20141;DHT22;10231;47.702;9.826;2023-07-02T06:45:26;16.20;99.90
20141;DHT22;10231;47.702;9.826;2023-07-02T06:47:51;16.20;99.90
20141;DHT22;10231;47.702;9.826;2023-07-02T06:50:17;16.20;99.90
20141;DHT22;10231;47.702;9.826;2023-07-02T06:52:42;16.20;99.90
20141;DHT22;10231;47.702;9.826;2023-07-02T06:55:08;16.20;99.90
20141;DHT22;10231;47.702;9.826;2023-07-02T06:57:34;16.20;99.90
20141;DHT22;10231;47.702;9.826;2023-07-02T07:00:00;16.30;99.90
20141;DHT22;10231;47.702;9.826;2023-07-02T07:02:26;16.20;99.90
20141;DHT22;10231;47.702;9.826;2023-07-02T07:04:52;16.30;99.90
20141;DHT22;10231;47.702;9.826;2023-07-02T07:07:18;16.30;99.90
20141;DHT22;10231;47.702;9.826;2023-07-02T07:09:44;16.30;99.90
20141;DHT22;10231;47.702;9.826;2023-07-02T07:12:09;16.30;99.90
20141;DHT22;10231;47.702;9.826;2023-07-02T07:14:35;16.40;99.90
20141;DHT22;10231;47.702;9.826;2023-07-02T07:17:00;16.40;99.90
20141;DHT22;10231;47.702;9.826;2023-07-02T07:19:26;16.50;99.90
20141;DHT22;10231;47.702;9.826;2023-07-02T07:21:51;16.50;99.90
20141;DHT22;10231;47.702;9.826;2023-07-02T07:24:17;16.50;99.90
20141;DHT22;10231;47.702;9.826;2023-07-02T07:26:42;16.60;99.90
20141;DHT22;10231;47.702;9.826;2023-07-02T07:29:08;16.60;99.90
20141;DHT22;10231;47.702;9.826;2023-07-02T07:31:34;16.70;99.90
20141;DHT22;10231;47.702;9.826;2023-07-02T07:33:59;16.70;99.90
20141;DHT22;10231;47.702;9.826;2023-07-02T07:36:25;16.70;99.90
20141;DHT22;10231;47.702;9.826;2023-07-02T07:38:50;16.80;99.90
20141;DHT22;10231;47.702;9.826;2023-07-02T07:41:16;16.80;99.90
20141;DHT22;10231;47.702;9.826;2023-07-02T07:43:41;16.80;99.90
20141;DHT22;10231;47.702;9.826;2023-07-02T07:46:07;16.80;99.90
20141;DHT22;10231;47.702;9.826;2023-07-02T07:48:32;16.80;99.90
20141;DHT22;10231;47.702;9.826;2023-07-02T07:50:58;16.80;99.90
20141;DHT22;10231;47.702;9.826;2023-07-02T07:53:23;16.70;99.90
20141;DHT22;10231;47.702;9.826;2023-07-02T07:55:49;16.80;99.90
20141;DHT22;10231;47.702;9.826;2023-07-02T07:58:15;16.70;99.90
20141;DHT22;10231;47.702;9.826;2023-07-02T08:00:40;16.70;99.90
20141;DHT22;10231;47.702;9.826;2023-07-02T08:03:06;16.70;99.90
20141;DHT22;10231;47.702;9.826;2023-07-02T08:05:31;16.70;99.90
20141;DHT22;10231;47.702;9.826;2023-07-02T08:07:57;16.80;99.90
20141;DHT22;10231;47.702;9.826;2023-07-02T08:10:24;16.70;99.90
20141;DHT22;10231;47.702;9.826;2023-07-02T08:12:50;16.70;99.90
20141;DHT22;10231;47.702;9.826;2023-07-02T08:15:17;16.70;99.90
20141;DHT22;10231;47.702;9.826;2023-07-02T08:17:43;16.70;99.90
20141;DHT22;10231;47.702;9.826;2023-07-02T08:22:38;16.90;99.90
20141;DHT22;10231;47.702;9.826;2023-07-02T08:25:04;16.90;99.90
20141;DHT22;10231;47.702;9.826;2023-07-02T08:27:30;16.80;99.90
20141;DHT22;10231;47.702;9.826;2023-07-02T08:29:55;16.80;99.90
20141;DHT22;10231;47.702;9.826;2023-07-02T08:32:21;16.80;99.90
20141;DHT22;10231;47.702;9.826;2023-07-02T08:34:46;16.80;99.90
20141;DHT22;10231;47.702;9.826;2023-07-02T08:37:12;16.90;99.90
20141;DHT22;10231;47.702;9.826;2023-07-02T08:39:38;16.90;99.90
20141;DHT22;10231;47.702;9.826;2023-07-02T08:42:05;17.00;99.90
20141;DHT22;10231;47.702;9.826;2023-07-02T08:44:31;16.90;99.90
20141;DHT22;10231;47.702;9.826;2023-07-02T08:46:56;17.00;99.90
20141;DHT22;10231;47.702;9.826;2023-07-02T08:49:22;17.10;99.90
20141;DHT22;10231;47.702;9.826;2023-07-02T08:51:48;17.10;99.90
20141;DHT22;10231;47.702;9.826;2023-07-02T08:54:14;17.10;99.90
20141;DHT22;10231;47.702;9.826;2023-07-02T08:56:42;17.10;99.90
20141;DHT22;10231;47.702;9.826;2023-07-02T08:59:08;17.10;99.90
20141;DHT22;10231;47.702;9.826;2023-07-02T09:01:45;17.10;99.90
20141;DHT22;10231;47.702;9.826;2023-07-02T09:04:22;17.10;99.90
20141;DHT22;10231;47.702;9.826;2023-07-02T09:07:11;17.10;99.90
20141;DHT22;10231;47.702;9.826;2023-07-02T09:09:49;17.10;99.90
20141;DHT22;10231;47.702;9.826;2023-07-02T09:12:30;17.10;99.90
20141;DHT22;10231;47.702;9.826;2023-07-02T09:15:00;17.00;99.90
20141;DHT22;10231;47.702;9.826;2023-07-02T09:17:30;17.00;99.90
20141;DHT22;10231;47.702;9.826;2023-07-02T09:19:57;17.00;99.90
20141;DHT22;10231;47.702;9.826;2023-07-02T09:22:23;17.10;99.90
20141;DHT22;10231;47.702;9.826;2023-07-02T09:24:53;17.10;99.90
20141;DHT22;10231;47.702;9.826;2023-07-02T09:27:38;17.30;99.90
20141;DHT22;10231;47.702;9.826;2023-07-02T09:30:11;17.20;99.90
20141;DHT22;10231;47.702;9.826;2023-07-02T09:32:44;17.20;99.90
20141;DHT22;10231;47.702;9.826;2023-07-02T09:35:10;17.30;99.90
20141;DHT22;10231;47.702;9.826;2023-07-02T09:37:36;17.20;99.90
20141;DHT22;10231;47.702;9.826;2023-07-02T09:40:02;17.20;99.90
20141;DHT22;10231;47.702;9.826;2023-07-02T09:42:33;17.30;99.90
20141;DHT22;10231;47.702;9.826;2023-07-02T09:45:00;17.30;99.90
20141;DHT22;10231;47.702;9.826;2023-07-02T09:47:28;17.20;99.90
20141;DHT22;10231;47.702;9.826;2023-07-02T09:50:03;17.20;99.90
20141;DHT22;10231;47.702;9.826;2023-07-02T09:52:31;17.20;99.90
20141;DHT22;10231;47.702;9.826;2023-07-02T09:54:58;17.20;99.90
20141;DHT22;10231;47.702;9.826;2023-07-02T09:57:24;17.20;99.90
20141;DHT22;10231;47.702;9.826;2023-07-02T09:59:50;17.20;99.90
20141;DHT22;10231;47.702;9.826;2023-07-02T10:02:16;17.30;99.90
20141;DHT22;10231;47.702;9.826;2023-07-02T10:04:46;17.20;99.90
20141;DHT22;10231;47.702;9.826;2023-07-02T10:07:13;17.30;99.90
20141;DHT22;10231;47.702;9.826;2023-07-02T10:09:50;17.30;99.90
20141;DHT22;10231;47.702;9.826;2023-07-02T10:12:20;17.30;99.90
20141;DHT22;10231;47.702;9.826;2023-07-02T10:14:47;17.30;99.90
20141;DHT22;10231;47.702;9.826;2023-07-02T10:17:34;17.30;99.90
20141;DHT22;10231;47.702;9.826;2023-07-02T10:20:06;17.30;99.90
20141;DHT22;10231;47.702;9.826;2023-07-02T10:22:46;17.30;99.90
20141;DHT22;10231;47.702;9.826;2023-07-02T10:25:23;17.40;99.90
20141;DHT22;10231;47.702;9.826;2023-07-02T10:27:49;17.40;99.90
20141;DHT22;10231;47.702;9.826;2023-07-02T10:30:14;17.50;99.90
20141;DHT22;10231;47.702;9.826;2023-07-02T10:32:40;17.50;99.90
20141;DHT22;10231;47.702;9.826;2023-07-02T10:35:17;17.60;99.90
20141;DHT22;10231;47.702;9.826;2023-07-02T10:37:43;17.70;99.90
20141;DHT22;10231;47.702;9.826;2023-07-02T10:40:10;17.80;99.90
20141;DHT22;10231;47.702;9.826;2023-07-02T10:42:49;17.80;99.90
20141;DHT22;10231;47.702;9.826;2023-07-02T10:45:15;18.00;99.90
20141;DHT22;10231;47.702;9.826;2023-07-02T10:47:41;18.00;99.90
20141;DHT22;10231;47.702;9.826;2023-07-02T10:50:17;18.10;99.90
20141;DHT22;10231;47.702;9.826;2023-07-02T10:52:43;18.20;99.90
20141;DHT22;10231;47.702;9.826;2023-07-02T10:55:09;18.10;99.90
20141;DHT22;10231;47.702;9.826;2023-07-02T10:57:35;18.00;99.90
20141;DHT22;10231;47.702;9.826;2023-07-02T11:00:07;18.10;99.90
20141;DHT22;10231;47.702;9.826;2023-07-02T11:02:40;18.00;99.90
20141;DHT22;10231;47.702;9.826;2023-07-02T11:05:06;18.00;99.90
20141;DHT22;10231;47.702;9.826;2023-07-02T11:07:33;18.00;99.90
20141;DHT22;10231;47.702;9.826;2023-07-02T11:09:58;18.10;99.90
20141;DHT22;10231;47.702;9.826;2023-07-02T11:12:28;18.10;99.90
20141;DHT22;10231;47.702;9.826;2023-07-02T11:14:53;18.20;99.90
20141;DHT22;10231;47.702;9.826;2023-07-02T11:17:25;18.20;99.90
20141;DHT22;10231;47.702;9.826;2023-07-02T11:19:51;18.10;99.90
20141;DHT22;10231;47.702;9.826;2023-07-02T11:22:17;18.20;99.90
20141;DHT22;10231;47.702;9.826;2023-07-02T11:24:42;18.30;99.90
20141;DHT22;10231;47.702;9.826;2023-07-02T11:27:08;18.40;99.90
20141;DHT22;10231;47.702;9.826;2023-07-02T11:29:37;18.50;99.90
20141;DHT22;10231;47.702;9.826;2023-07-02T11:32:07;18.60;99.90
20141;DHT22;10231;47.702;9.826;2023-07-02T11:34:35;18.80;99.90
20141;DHT22;10231;47.702;9.826;2023-07-02T11:37:01;18.80;99.90
20141;DHT22;10231;47.702;9.826;2023-07-02T11:39:26;18.90;99.90
20141;DHT22;10231;47.702;9.826;2023-07-02T11:41:52;18.90;99.90
20141;DHT22;10231;47.702;9.826;2023-07-02T11:44:18;19.00;99.90
20141;DHT22;10231;47.702;9.826;2023-07-02T11:46:44;19.10;99.90
20141;DHT22;10231;47.702;9.826;2023-07-02T11:49:12;19.20;99.90
20141;DHT22;10231;47.702;9.826;2023-07-02T11:51:38;19.30;99.90
20141;DHT22;10231;47.702;9.826;2023-07-02T11:54:04;19.50;99.90
20141;DHT22;10231;47.702;9.826;2023-07-02T11:56:30;19.50;99.90
20141;DHT22;10231;47.702;9.826;2023-07-02T11:58:56;19.70;99.90
20141;DHT22;10231;47.702;9.826;2023-07-02T12:01:21;19.80;99.90
20141;DHT22;10231;47.702;9.826;2023-07-02T12:03:47;19.80;99.90
20141;DHT22;10231;47.702;9.826;2023-07-02T12:06:13;19.90;99.90
20141;DHT22;10231;47.702;9.826;2023-07-02T12:08:39;19.90;99.90
20141;DHT22;10231;47.702;9.826;2023-07-02T12:11:04;20.00;99.90
20141;DHT22;10231;47.702;9.826;2023-07-02T12:13:30;20.00;99.90
20141;DHT22;10231;47.702;9.826;2023-07-02T12:15:55;20.10;99.90
20141;DHT22;10231;47.702;9.826;2023-07-02T12:18:21;20.20;99.90
20141;DHT22;10231;47.702;9.826;2023-07-02T12:20:47;20.20;99.90
20141;DHT22;10231;47.702;9.826;2023-07-02T12:23:12;20.20;99.90
20141;DHT22;10231;47.702;9.826;2023-07-02T12:25:38;20.30;99.90
20141;DHT22;10231;47.702;9.826;2023-07-02T12:28:04;20.40;99.90
20141;DHT22;10231;47.702;9.826;2023-07-02T12:30:31;20.50;99.90
20141;DHT22;10231;47.702;9.826;2023-07-02T12:32:56;20.50;99.90
20141;DHT22;10231;47.702;9.826;2023-07-02T12:35:22;20.60;99.90
20141;DHT22;10231;47.702;9.826;2023-07-02T12:37:52;20.70;99.90
20141;DHT22;10231;47.702;9.826;2023-07-02T12:40:19;20.80;99.90
20141;DHT22;10231;47.702;9.826;2023-07-02T12:42:45;20.80;99.90
20141;DHT22;10231;47.702;9.826;2023-07-02T12:45:13;20.80;99.90
20141;DHT22;10231;47.702;9.826;2023-07-02T12:47:39;20.90;99.90
20141;DHT22;10231;47.702;9.826;2023-07-02T12:50:05;20.90;99.90
20141;DHT22;10231;47.702;9.826;2023-07-02T12:52:32;21.00;99.90
20141;DHT22;10231;47.702;9.826;2023-07-02T12:54:57;21.00;99.90
20141;DHT22;10231;47.702;9.826;2023-07-02T12:57:23;21.10;99.90
20141;DHT22;10231;47.702;9.826;2023-07-02T12:59:49;21.10;99.90
20141;DHT22;10231;47.702;9.826;2023-07-02T13:02:14;21.10;99.90
20141;DHT22;10231;47.702;9.826;2023-07-02T13:04:40;21.20;99.90
20141;DHT22;10231;47.702;9.826;2023-07-02T13:07:06;21.20;99.90
20141;DHT22;10231;47.702;9.826;2023-07-02T13:09:31;21.20;99.90
20141;DHT22;10231;47.702;9.826;2023-07-02T13:11:57;21.30;99.90
20141;DHT22;10231;47.702;9.826;2023-07-02T13:14:22;21.40;99.90
20141;DHT22;10231;47.702;9.826;2023-07-02T13:16:48;21.50;99.90
20141;DHT22;10231;47.702;9.826;2023-07-02T13:19:13;21.40;99.90
20141;DHT22;10231;47.702;9.826;2023-07-02T13:21:40;21.30;99.90
20141;DHT22;10231;47.702;9.826;2023-07-02T13:24:06;21.10;99.90
20141;DHT22;10231;47.702;9.826;2023-07-02T13:26:31;21.00;99.90
20141;DHT22;10231;47.702;9.826;2023-07-02T13:28:57;21.00;99.90
20141;DHT22;10231;47.702;9.826;2023-07-02T13:31:22;21.00;99.90
20141;DHT22;10231;47.702;9.826;2023-07-02T13:33:49;20.90;99.90
20141;DHT22;10231;47.702;9.826;2023-07-02T13:36:15;21.00;99.90
20141;DHT22;10231;47.702;9.826;2023-07-02T13:38:41;21.00;99.90
20141;DHT22;10231;47.702;9.826;2023-07-02T13:41:07;21.00;99.90
20141;DHT22;10231;47.702;9.826;2023-07-02T13:43:33;20.90;99.90
20141;DHT22;10231;47.702;9.826;2023-07-02T13:45:58;21.00;99.90
20141;DHT22;10231;47.702;9.826;2023-07-02T13:48:24;21.10;99.90
20141;DHT22;10231;47.702;9.826;2023-07-02T13:50:50;21.20;99.90
20141;DHT22;10231;47.702;9.826;2023-07-02T13:53:15;21.40;99.90
20141;DHT22;10231;47.702;9.826;2023-07-02T13:55:41;21.60;99.90
20141;DHT22;10231;47.702;9.826;2023-07-02T13:58:07;21.70;99.90
20141;DHT22;10231;47.702;9.826;2023-07-02T14:00:32;21.70;99.90
20141;DHT22;10231;47.702;9.826;2023-07-02T14:02:58;21.60;99.90
20141;DHT22;10231;47.702;9.826;2023-07-02T14:05:23;21.50;99.90
20141;DHT22;10231;47.702;9.826;2023-07-02T14:07:49;21.60;99.90
20141;DHT22;10231;47.702;9.826;2023-07-02T14:10:15;21.70;99.90
20141;DHT22;10231;47.702;9.826;2023-07-02T14:12:41;21.60;99.90
20141;DHT22;10231;47.702;9.826;2023-07-02T14:15:08;21.60;99.90
20141;DHT22;10231;47.702;9.826;2023-07-02T14:17:34;21.60;99.90
20141;DHT22;10231;47.702;9.826;2023-07-02T14:20:01;21.60;99.90
20141;DHT22;10231;47.702;9.826;2023-07-02T14:22:26;21.50;99.90
20141;DHT22;10231;47.702;9.826;2023-07-02T14:24:52;21.60;99.90
20141;DHT22;10231;47.702;9.826;2023-07-02T14:27:17;21.80;99.90
20141;DHT22;10231;47.702;9.826;2023-07-02T14:29:43;21.90;99.90
20141;DHT22;10231;47.702;9.826;2023-07-02T14:32:09;22.20;99.90
20141;DHT22;10231;47.702;9.826;2023-07-02T14:34:34;22.40;99.90
20141;DHT22;10231;47.702;9.826;2023-07-02T14:37:02;22.40;99.90
20141;DHT22;10231;47.702;9.826;2023-07-02T14:39:28;22.40;99.90
20141;DHT22;10231;47.702;9.826;2023-07-02T14:41:54;22.50;99.90
20141;DHT22;10231;47.702;9.826;2023-07-02T14:44:19;22.60;99.90
20141;DHT22;10231;47.702;9.826;2023-07-02T14:46:45;22.80;99.90
20141;DHT22;10231;47.702;9.826;2023-07-02T14:49:10;22.90;99.90
20141;DHT22;10231;47.702;9.826;2023-07-02T14:51:36;22.90;99.90
20141;DHT22;10231;47.702;9.826;2023-07-02T14:54:02;22.90;99.90
20141;DHT22;10231;47.702;9.826;2023-07-02T14:56:29;23.10;99.90
20141;DHT22;10231;47.702;9.826;2023-07-02T14:58:55;23.20;99.90
20141;DHT22;10231;47.702;9.826;2023-07-02T15:01:21;23.30;99.90
20141;DHT22;10231;47.702;9.826;2023-07-02T15:03:46;23.50;99.90
20141;DHT22;10231;47.702;9.826;2023-07-02T15:06:14;23.50;99.90
20141;DHT22;10231;47.702;9.826;2023-07-02T15:08:40;23.60;99.90
20141;DHT22;10231;47.702;9.826;2023-07-02T15:11:06;23.60;99.90
20141;DHT22;10231;47.702;9.826;2023-07-02T15:13:32;23.80;99.90
20141;DHT22;10231;47.702;9.826;2023-07-02T15:15:58;23.90;99.90
20141;DHT22;10231;47.702;9.826;2023-07-02T15:18:25;24.00;99.90
20141;DHT22;10231;47.702;9.826;2023-07-02T15:20:51;24.10;99.90
20141;DHT22;10231;47.702;9.826;2023-07-02T15:23:22;23.90;99.90
20141;DHT22;10231;47.702;9.826;2023-07-02T15:25:55;24.10;99.90
20141;DHT22;10231;47.702;9.826;2023-07-02T15:28:22;24.10;99.90
20141;DHT22;10231;47.702;9.826;2023-07-02T15:30:52;24.20;99.90
20141;DHT22;10231;47.702;9.826;2023-07-02T15:33:18;24.30;99.90
20141;DHT22;10231;47.702;9.826;2023-07-02T15:35:44;24.40;99.90